sensor_id;sensor_type;location;lat;lon;timestamp;P1;durP1;ratioP1;P2;durP2;ratioP2
66327;SDS011;53133;52.862;6.602;2022-08-26T00:00:56;48.38;;;39.38;;
66327;SDS011;53133;52.862;6.602;2022-08-26T00:03:22;44.88;;;39.67;;
66327;SDS011;53133;52.862;6.602;2022-08-26T00:05:48;45.95;;;40.97;;
66327;SDS011;53133;52.862;6.602;2022-08-26T00:08:16;45.50;;;40.58;;
66327;SDS011;53133;52.862;6.602;2022-08-26T00:10:43;46.20;;;41.08;;
66327;SDS011;53133;52.862;6.602;2022-08-26T00:13:09;46.80;;;41.75;;
66327;SDS011;53133;52.862;6.602;2022-08-26T00:15:36;48.72;;;43.40;;
66327;SDS011;53133;52.862;6.602;2022-08-26T00:18:03;46.88;;;41.83;;
66327;SDS011;53133;52.862;6.602;2022-08-26T00:20:29;55.38;;;46.90;;
66327;SDS011;53133;52.862;6.602;2022-08-26T00:22:56;51.15;;;44.78;;
66327;SDS011;53133;52.862;6.602;2022-08-26T00:25:22;54.50;;;45.85;;
66327;SDS011;53133;52.862;6.602;2022-08-26T00:27:48;53.30;;;45.22;;
66327;SDS011;53133;52.862;6.602;2022-08-26T00:30:16;52.45;;;46.72;;
66327;SDS011;53133;52.862;6.602;2022-08-26T00:32:45;52.53;;;44.58;;
66327;SDS011;53133;52.862;6.602;2022-08-26T00:35:11;50.30;;;44.58;;
66327;SDS011;53133;52.862;6.602;2022-08-26T00:37:37;50.53;;;43.45;;
66327;SDS011;53133;52.862;6.602;2022-08-26T00:40:04;52.63;;;46.22;;
66327;SDS011;53133;52.862;6.602;2022-08-26T00:42:32;52.22;;;45.47;;
66327;SDS011;53133;52.862;6.602;2022-08-26T00:44:58;57.40;;;45.80;;
66327;SDS011;53133;52.862;6.602;2022-08-26T00:47:28;56.17;;;45.90;;
66327;SDS011;53133;52.862;6.602;2022-08-26T00:49:57;55.45;;;45.83;;
66327;SDS011;53133;52.862;6.602;2022-08-26T00:52:25;53.00;;;44.75;;
66327;SDS011;53133;52.862;6.602;2022-08-26T00:55:14;53.17;;;45.50;;
66327;SDS011;53133;52.862;6.602;2022-08-26T00:57:42;57.05;;;44.10;;
66327;SDS011;53133;52.862;6.602;2022-08-26T01:00:10;51.08;;;42.92;;
66327;SDS011;53133;52.862;6.602;2022-08-26T01:02:39;57.35;;;44.60;;
66327;SDS011;53133;52.862;6.602;2022-08-26T01:05:06;56.30;;;44.38;;
66327;SDS011;53133;52.862;6.602;2022-08-26T01:07:33;51.97;;;41.55;;
66327;SDS011;53133;52.862;6.602;2022-08-26T01:10:00;50.42;;;40.60;;
66327;SDS011;53133;52.862;6.602;2022-08-26T01:12:30;55.65;;;42.25;;
66327;SDS011;53133;52.862;6.602;2022-08-26T01:14:59;55.38;;;41.75;;
66327;SDS011;53133;52.862;6.602;2022-08-26T01:17:26;54.50;;;41.45;;
66327;SDS011;53133;52.862;6.602;2022-08-26T01:19:56;50.05;;;39.60;;
66327;SDS011;53133;52.862;6.602;2022-08-26T01:22:30;48.55;;;39.42;;
66327;SDS011;53133;52.862;6.602;2022-08-26T01:25:16;51.30;;;39.70;;
66327;SDS011;53133;52.862;6.602;2022-08-26T01:27:43;51.53;;;39.65;;
66327;SDS011;53133;52.862;6.602;2022-08-26T01:30:10;45.55;;;37.58;;
66327;SDS011;53133;52.862;6.602;2022-08-26T01:32:36;50.38;;;38.03;;
66327;SDS011;53133;52.862;6.602;2022-08-26T01:35:03;52.90;;;37.88;;
66327;SDS011;53133;52.862;6.602;2022-08-26T01:37:34;51.75;;;37.65;;
66327;SDS011;53133;52.862;6.602;2022-08-26T01:40:03;49.72;;;38.33;;
66327;SDS011;53133;52.862;6.602;2022-08-26T01:42:31;52.45;;;36.50;;
66327;SDS011;53133;52.862;6.602;2022-08-26T01:45:02;44.60;;;36.55;;
66327;SDS011;53133;52.862;6.602;2022-08-26T01:47:31;43.08;;;34.33;;
66327;SDS011;53133;52.862;6.602;2022-08-26T01:50:00;47.78;;;34.13;;
66327;SDS011;53133;52.862;6.602;2022-08-26T01:52:30;43.63;;;33.67;;
66327;SDS011;53133;52.862;6.602;2022-08-26T01:54:59;41.55;;;31.63;;
66327;SDS011;53133;52.862;6.602;2022-08-26T01:57:26;48.85;;;33.17;;
66327;SDS011;53133;52.862;6.602;2022-08-26T01:59:53;44.13;;;32.60;;
66327;SDS011;53133;52.862;6.602;2022-08-26T02:02:21;47.42;;;32.10;;
66327;SDS011;53133;52.862;6.602;2022-08-26T02:04:48;45.90;;;32.47;;
66327;SDS011;53133;52.862;6.602;2022-08-26T02:07:25;43.17;;;30.92;;
66327;SDS011;53133;52.862;6.602;2022-08-26T02:09:52;44.33;;;31.25;;
66327;SDS011;53133;52.862;6.602;2022-08-26T02:12:18;42.78;;;30.80;;
66327;SDS011;53133;52.862;6.602;2022-08-26T02:14:48;39.95;;;29.95;;
66327;SDS011;53133;52.862;6.602;2022-08-26T02:17:19;41.00;;;29.35;;
66327;SDS011;53133;52.862;6.602;2022-08-26T02:19:50;42.17;;;29.35;;
66327;SDS011;53133;52.862;6.602;2022-08-26T02:22:17;42.42;;;30.80;;
66327;SDS011;53133;52.862;6.602;2022-08-26T02:24:47;38.50;;;28.05;;
66327;SDS011;53133;52.862;6.602;2022-08-26T02:27:17;42.40;;;30.35;;
66327;SDS011;53133;52.862;6.602;2022-08-26T02:29:47;41.13;;;29.13;;
66327;SDS011;53133;52.862;6.602;2022-08-26T02:32:16;40.25;;;28.42;;
66327;SDS011;53133;52.862;6.602;2022-08-26T02:34:42;37.28;;;29.05;;
66327;SDS011;53133;52.862;6.602;2022-08-26T02:37:09;44.63;;;30.63;;
66327;SDS011;53133;52.862;6.602;2022-08-26T02:39:35;39.85;;;29.30;;
66327;SDS011;53133;52.862;6.602;2022-08-26T02:42:03;45.58;;;29.10;;
66327;SDS011;53133;52.862;6.602;2022-08-26T02:44:30;37.42;;;27.92;;
66327;SDS011;53133;52.862;6.602;2022-08-26T02:46:56;44.92;;;29.33;;
66327;SDS011;53133;52.862;6.602;2022-08-26T02:49:22;41.33;;;27.83;;
66327;SDS011;53133;52.862;6.602;2022-08-26T02:51:48;39.22;;;28.20;;
66327;SDS011;53133;52.862;6.602;2022-08-26T02:54:15;38.72;;;27.65;;
66327;SDS011;53133;52.862;6.602;2022-08-26T02:56:42;39.42;;;26.27;;
66327;SDS011;53133;52.862;6.602;2022-08-26T02:59:08;37.30;;;28.00;;
66327;SDS011;53133;52.862;6.602;2022-08-26T03:01:36;38.60;;;27.38;;
66327;SDS011;53133;52.862;6.602;2022-08-26T03:04:02;38.38;;;25.45;;
66327;SDS011;53133;52.862;6.602;2022-08-26T03:06:29;39.30;;;25.65;;
66327;SDS011;53133;52.862;6.602;2022-08-26T03:08:55;38.13;;;26.30;;
66327;SDS011;53133;52.862;6.602;2022-08-26T03:11:21;37.50;;;25.92;;
66327;SDS011;53133;52.862;6.602;2022-08-26T03:13:47;33.85;;;25.38;;
66327;SDS011;53133;52.862;6.602;2022-08-26T03:16:13;41.15;;;25.20;;
66327;SDS011;53133;52.862;6.602;2022-08-26T03:18:40;33.03;;;24.77;;
66327;SDS011;53133;52.862;6.602;2022-08-26T03:21:07;35.55;;;24.17;;
66327;SDS011;53133;52.862;6.602;2022-08-26T03:23:38;31.38;;;23.02;;
66327;SDS011;53133;52.862;6.602;2022-08-26T03:26:04;31.08;;;23.20;;
66327;SDS011;53133;52.862;6.602;2022-08-26T03:28:31;37.47;;;23.98;;
66327;SDS011;53133;52.862;6.602;2022-08-26T03:30:56;33.05;;;21.90;;
66327;SDS011;53133;52.862;6.602;2022-08-26T03:33:22;32.55;;;22.60;;
66327;SDS011;53133;52.862;6.602;2022-08-26T03:35:49;33.83;;;22.70;;
66327;SDS011;53133;52.862;6.602;2022-08-26T03:38:17;32.22;;;21.83;;
66327;SDS011;53133;52.862;6.602;2022-08-26T03:40:44;36.20;;;25.40;;
66327;SDS011;53133;52.862;6.602;2022-08-26T03:43:12;31.30;;;23.30;;
66327;SDS011;53133;52.862;6.602;2022-08-26T03:45:39;33.13;;;23.63;;
66327;SDS011;53133;52.862;6.602;2022-08-26T03:48:05;36.38;;;22.67;;
66327;SDS011;53133;52.862;6.602;2022-08-26T03:50:32;34.67;;;22.60;;
66327;SDS011;53133;52.862;6.602;2022-08-26T03:52:58;35.97;;;23.00;;
66327;SDS011;53133;52.862;6.602;2022-08-26T03:55:24;38.30;;;22.35;;
66327;SDS011;53133;52.862;6.602;2022-08-26T03:57:51;37.22;;;22.52;;
66327;SDS011;53133;52.862;6.602;2022-08-26T04:00:18;29.85;;;20.52;;
66327;SDS011;53133;52.862;6.602;2022-08-26T04:02:45;33.25;;;19.85;;
66327;SDS011;53133;52.862;6.602;2022-08-26T04:05:13;27.02;;;19.48;;
66327;SDS011;53133;52.862;6.602;2022-08-26T04:07:39;31.33;;;19.25;;
66327;SDS011;53133;52.862;6.602;2022-08-26T04:10:07;28.40;;;19.77;;
66327;SDS011;53133;52.862;6.602;2022-08-26T04:12:34;30.65;;;18.98;;
66327;SDS011;53133;52.862;6.602;2022-08-26T04:15:03;28.27;;;18.73;;
66327;SDS011;53133;52.862;6.602;2022-08-26T04:17:32;28.08;;;19.00;;
66327;SDS011;53133;52.862;6.602;2022-08-26T04:19:58;32.45;;;18.23;;
66327;SDS011;53133;52.862;6.602;2022-08-26T04:22:23;28.30;;;17.25;;
66327;SDS011;53133;52.862;6.602;2022-08-26T04:24:50;27.85;;;17.70;;
66327;SDS011;53133;52.862;6.602;2022-08-26T04:27:16;25.02;;;17.08;;
66327;SDS011;53133;52.862;6.602;2022-08-26T04:29:41;25.48;;;16.50;;
66327;SDS011;53133;52.862;6.602;2022-08-26T04:32:07;28.73;;;16.45;;
66327;SDS011;53133;52.862;6.602;2022-08-26T04:34:34;29.20;;;16.10;;
66327;SDS011;53133;52.862;6.602;2022-08-26T04:36:59;26.85;;;17.02;;
66327;SDS011;53133;52.862;6.602;2022-08-26T04:39:25;26.80;;;16.23;;
66327;SDS011;53133;52.862;6.602;2022-08-26T04:41:51;27.02;;;16.45;;
66327;SDS011;53133;52.862;6.602;2022-08-26T04:44:19;23.30;;;15.20;;
66327;SDS011;53133;52.862;6.602;2022-08-26T04:46:45;23.70;;;15.27;;
66327;SDS011;53133;52.862;6.602;2022-08-26T04:49:11;28.75;;;15.45;;
66327;SDS011;53133;52.862;6.602;2022-08-26T04:51:37;21.65;;;14.85;;
66327;SDS011;53133;52.862;6.602;2022-08-26T04:54:03;24.17;;;14.93;;
66327;SDS011;53133;52.862;6.602;2022-08-26T04:56:35;24.13;;;15.80;;
66327;SDS011;53133;52.862;6.602;2022-08-26T04:59:03;23.33;;;15.85;;
66327;SDS011;53133;52.862;6.602;2022-08-26T05:01:30;23.73;;;15.23;;
66327;SDS011;53133;52.862;6.602;2022-08-26T05:03:56;20.63;;;15.15;;
66327;SDS011;53133;52.862;6.602;2022-08-26T05:06:22;22.35;;;15.25;;
66327;SDS011;53133;52.862;6.602;2022-08-26T05:08:48;20.85;;;15.35;;
66327;SDS011;53133;52.862;6.602;2022-08-26T05:11:14;23.00;;;15.73;;
66327;SDS011;53133;52.862;6.602;2022-08-26T05:13:40;22.55;;;14.10;;
66327;SDS011;53133;52.862;6.602;2022-08-26T05:16:07;25.67;;;15.50;;
66327;SDS011;53133;52.862;6.602;2022-08-26T05:18:34;22.13;;;14.90;;
66327;SDS011;53133;52.862;6.602;2022-08-26T05:21:01;20.40;;;14.70;;
66327;SDS011;53133;52.862;6.602;2022-08-26T05:23:27;22.40;;;14.30;;
66327;SDS011;53133;52.862;6.602;2022-08-26T05:25:56;22.05;;;15.52;;
66327;SDS011;53133;52.862;6.602;2022-08-26T05:28:22;24.92;;;15.27;;
66327;SDS011;53133;52.862;6.602;2022-08-26T05:30:48;25.92;;;15.50;;
66327;SDS011;53133;52.862;6.602;2022-08-26T05:33:15;23.60;;;14.73;;
66327;SDS011;53133;52.862;6.602;2022-08-26T05:35:41;20.45;;;14.35;;
66327;SDS011;53133;52.862;6.602;2022-08-26T05:38:09;21.73;;;13.93;;
66327;SDS011;53133;52.862;6.602;2022-08-26T05:40:38;20.10;;;13.30;;
66327;SDS011;53133;52.862;6.602;2022-08-26T05:43:06;24.58;;;12.85;;
66327;SDS011;53133;52.862;6.602;2022-08-26T05:45:39;19.45;;;12.65;;
66327;SDS011;53133;52.862;6.602;2022-08-26T05:48:06;20.98;;;12.10;;
66327;SDS011;53133;52.862;6.602;2022-08-26T05:50:48;18.27;;;11.65;;
66327;SDS011;53133;52.862;6.602;2022-08-26T05:53:16;18.48;;;12.55;;
66327;SDS011;53133;52.862;6.602;2022-08-26T05:55:45;23.95;;;13.13;;
66327;SDS011;53133;52.862;6.602;2022-08-26T05:58:16;14.90;;;11.20;;
66327;SDS011;53133;52.862;6.602;2022-08-26T06:00:59;22.00;;;11.90;;
66327;SDS011;53133;52.862;6.602;2022-08-26T06:03:24;21.55;;;11.63;;
66327;SDS011;53133;52.862;6.602;2022-08-26T06:05:50;20.40;;;11.38;;
66327;SDS011;53133;52.862;6.602;2022-08-26T06:08:16;21.55;;;10.02;;
66327;SDS011;53133;52.862;6.602;2022-08-26T06:10:46;20.67;;;11.98;;
66327;SDS011;53133;52.862;6.602;2022-08-26T06:13:20;17.75;;;10.27;;
66327;SDS011;53133;52.862;6.602;2022-08-26T06:15:53;20.15;;;11.50;;
66327;SDS011;53133;52.862;6.602;2022-08-26T06:18:21;18.45;;;12.40;;
66327;SDS011;53133;52.862;6.602;2022-08-26T06:20:49;23.88;;;12.25;;
66327;SDS011;53133;52.862;6.602;2022-08-26T06:23:15;20.80;;;11.15;;
66327;SDS011;53133;52.862;6.602;2022-08-26T06:26:01;19.27;;;11.73;;
66327;SDS011;53133;52.862;6.602;2022-08-26T06:28:28;19.70;;;11.98;;
66327;SDS011;53133;52.862;6.602;2022-08-26T06:30:53;23.92;;;12.13;;
66327;SDS011;53133;52.862;6.602;2022-08-26T06:33:20;24.45;;;12.82;;
66327;SDS011;53133;52.862;6.602;2022-08-26T06:35:46;27.02;;;12.52;;
66327;SDS011;53133;52.862;6.602;2022-08-26T06:38:12;24.15;;;11.70;;
66327;SDS011;53133;52.862;6.602;2022-08-26T06:40:39;23.52;;;11.18;;
66327;SDS011;53133;52.862;6.602;2022-08-26T06:43:10;20.75;;;10.55;;
66327;SDS011;53133;52.862;6.602;2022-08-26T06:45:36;20.40;;;11.02;;
66327;SDS011;53133;52.862;6.602;2022-08-26T06:48:03;21.00;;;10.75;;
66327;SDS011;53133;52.862;6.602;2022-08-26T06:50:30;21.17;;;10.80;;
66327;SDS011;53133;52.862;6.602;2022-08-26T06:52:57;18.77;;;10.57;;
66327;SDS011;53133;52.862;6.602;2022-08-26T06:55:22;18.80;;;9.63;;
66327;SDS011;53133;52.862;6.602;2022-08-26T06:57:48;19.25;;;9.85;;
66327;SDS011;53133;52.862;6.602;2022-08-26T07:00:14;23.00;;;9.50;;
66327;SDS011;53133;52.862;6.602;2022-08-26T07:02:40;20.30;;;9.02;;
66327;SDS011;53133;52.862;6.602;2022-08-26T07:05:06;18.30;;;8.80;;
66327;SDS011;53133;52.862;6.602;2022-08-26T07:07:32;22.13;;;9.10;;
66327;SDS011;53133;52.862;6.602;2022-08-26T07:09:58;18.52;;;8.73;;
66327;SDS011;53133;52.862;6.602;2022-08-26T07:12:23;16.70;;;8.63;;
66327;SDS011;53133;52.862;6.602;2022-08-26T07:14:50;19.10;;;8.55;;
66327;SDS011;53133;52.862;6.602;2022-08-26T07:17:16;18.42;;;9.05;;
66327;SDS011;53133;52.862;6.602;2022-08-26T07:19:43;14.65;;;8.80;;
66327;SDS011;53133;52.862;6.602;2022-08-26T07:22:09;18.42;;;8.65;;
66327;SDS011;53133;52.862;6.602;2022-08-26T07:24:35;20.55;;;8.95;;
66327;SDS011;53133;52.862;6.602;2022-08-26T07:27:04;15.07;;;9.00;;
66327;SDS011;53133;52.862;6.602;2022-08-26T07:29:32;17.27;;;8.55;;
66327;SDS011;53133;52.862;6.602;2022-08-26T07:31:58;18.35;;;8.25;;
66327;SDS011;53133;52.862;6.602;2022-08-26T07:34:23;15.00;;;8.25;;
66327;SDS011;53133;52.862;6.602;2022-08-26T07:36:49;15.13;;;8.63;;
66327;SDS011;53133;52.862;6.602;2022-08-26T07:39:15;11.82;;;7.07;;
66327;SDS011;53133;52.862;6.602;2022-08-26T07:41:42;16.40;;;7.78;;
66327;SDS011;53133;52.862;6.602;2022-08-26T07:44:11;14.23;;;6.88;;
66327;SDS011;53133;52.862;6.602;2022-08-26T07:46:37;17.25;;;6.60;;
66327;SDS011;53133;52.862;6.602;2022-08-26T07:49:04;15.00;;;6.38;;
66327;SDS011;53133;52.862;6.602;2022-08-26T07:51:30;13.88;;;6.35;;
66327;SDS011;53133;52.862;6.602;2022-08-26T07:53:56;18.77;;;6.82;;
66327;SDS011;53133;52.862;6.602;2022-08-26T07:56:22;16.73;;;6.20;;
66327;SDS011;53133;52.862;6.602;2022-08-26T07:58:48;16.08;;;5.57;;
66327;SDS011;53133;52.862;6.602;2022-08-26T08:01:14;18.02;;;5.88;;
66327;SDS011;53133;52.862;6.602;2022-08-26T08:03:40;15.05;;;6.20;;
66327;SDS011;53133;52.862;6.602;2022-08-26T08:06:06;15.30;;;5.85;;
66327;SDS011;53133;52.862;6.602;2022-08-26T08:08:32;16.58;;;5.95;;
66327;SDS011;53133;52.862;6.602;2022-08-26T08:10:59;10.88;;;5.32;;
66327;SDS011;53133;52.862;6.602;2022-08-26T08:13:25;12.93;;;5.72;;
66327;SDS011;53133;52.862;6.602;2022-08-26T08:15:51;15.98;;;5.90;;
66327;SDS011;53133;52.862;6.602;2022-08-26T08:18:17;11.23;;;5.32;;
66327;SDS011;53133;52.862;6.602;2022-08-26T08:20:43;15.48;;;5.07;;
66327;SDS011;53133;52.862;6.602;2022-08-26T08:23:09;10.43;;;4.82;;
66327;SDS011;53133;52.862;6.602;2022-08-26T08:25:35;15.48;;;4.70;;
66327;SDS011;53133;52.862;6.602;2022-08-26T08:28:01;13.35;;;4.78;;
66327;SDS011;53133;52.862;6.602;2022-08-26T08:30:27;11.15;;;4.38;;
66327;SDS011;53133;52.862;6.602;2022-08-26T08:32:52;12.02;;;5.15;;
66327;SDS011;53133;52.862;6.602;2022-08-26T08:35:19;13.60;;;4.40;;
66327;SDS011;53133;52.862;6.602;2022-08-26T08:37:46;17.20;;;4.43;;
66327;SDS011;53133;52.862;6.602;2022-08-26T08:40:18;10.10;;;4.25;;
66327;SDS011;53133;52.862;6.602;2022-08-26T08:43:03;6.72;;;3.92;;
66327;SDS011;53133;52.862;6.602;2022-08-26T08:45:51;9.52;;;3.25;;
66327;SDS011;53133;52.862;6.602;2022-08-26T08:48:27;9.85;;;3.40;;
66327;SDS011;53133;52.862;6.602;2022-08-26T08:51:41;10.18;;;3.50;;
66327;SDS011;53133;52.862;6.602;2022-08-26T08:53:59;12.25;;;3.35;;
66327;SDS011;53133;52.862;6.602;2022-08-26T08:56:28;12.18;;;3.20;;
66327;SDS011;53133;52.862;6.602;2022-08-26T09:01:44;7.25;;;2.80;;
66327;SDS011;53133;52.862;6.602;2022-08-26T09:07:07;8.40;;;2.63;;
66327;SDS011;53133;52.862;6.602;2022-08-26T09:09:43;6.20;;;2.28;;
66327;SDS011;53133;52.862;6.602;2022-08-26T09:12:44;9.77;;;2.30;;
66327;SDS011;53133;52.862;6.602;2022-08-26T09:15:05;7.50;;;1.98;;
66327;SDS011;53133;52.862;6.602;2022-08-26T09:17:48;11.30;;;2.22;;
66327;SDS011;53133;52.862;6.602;2022-08-26T09:20:41;6.78;;;1.80;;
66327;SDS011;53133;52.862;6.602;2022-08-26T09:23:08;9.20;;;2.60;;
66327;SDS011;53133;52.862;6.602;2022-08-26T09:25:43;8.70;;;2.10;;
66327;SDS011;53133;52.862;6.602;2022-08-26T09:28:13;5.15;;;1.92;;
66327;SDS011;53133;52.862;6.602;2022-08-26T09:30:43;6.38;;;1.77;;
66327;SDS011;53133;52.862;6.602;2022-08-26T09:33:12;7.68;;;1.98;;
66327;SDS011;53133;52.862;6.602;2022-08-26T09:35:41;11.38;;;2.40;;
66327;SDS011;53133;52.862;6.602;2022-08-26T09:40:58;9.10;;;2.35;;
66327;SDS011;53133;52.862;6.602;2022-08-26T09:43:24;6.90;;;2.22;;
66327;SDS011;53133;52.862;6.602;2022-08-26T09:45:54;7.32;;;1.83;;
66327;SDS011;53133;52.862;6.602;2022-08-26T09:48:36;7.97;;;1.83;;
66327;SDS011;53133;52.862;6.602;2022-08-26T09:51:05;13.32;;;2.55;;
66327;SDS011;53133;52.862;6.602;2022-08-26T09:58:50;7.63;;;2.00;;
66327;SDS011;53133;52.862;6.602;2022-08-26T10:03:47;10.13;;;2.30;;
66327;SDS011;53133;52.862;6.602;2022-08-26T10:08:43;10.48;;;2.58;;
66327;SDS011;53133;52.862;6.602;2022-08-26T10:14:18;7.32;;;2.35;;
66327;SDS011;53133;52.862;6.602;2022-08-26T10:16:53;8.52;;;2.45;;
66327;SDS011;53133;52.862;6.602;2022-08-26T10:19:25;9.30;;;2.65;;
66327;SDS011;53133;52.862;6.602;2022-08-26T10:22:05;12.95;;;2.65;;
66327;SDS011;53133;52.862;6.602;2022-08-26T10:24:41;5.95;;;1.95;;
66327;SDS011;53133;52.862;6.602;2022-08-26T10:27:25;9.30;;;2.30;;
66327;SDS011;53133;52.862;6.602;2022-08-26T10:30:20;5.15;;;2.20;;
66327;SDS011;53133;52.862;6.602;2022-08-26T10:32:59;4.22;;;1.70;;
66327;SDS011;53133;52.862;6.602;2022-08-26T10:35:43;8.73;;;2.30;;
66327;SDS011;53133;52.862;6.602;2022-08-26T10:38:21;8.30;;;2.58;;
66327;SDS011;53133;52.862;6.602;2022-08-26T10:43:43;13.00;;;2.40;;
66327;SDS011;53133;52.862;6.602;2022-08-26T10:46:14;9.35;;;2.25;;
66327;SDS011;53133;52.862;6.602;2022-08-26T10:49:02;4.85;;;2.10;;
66327;SDS011;53133;52.862;6.602;2022-08-26T10:51:33;10.32;;;2.45;;
66327;SDS011;53133;52.862;6.602;2022-08-26T11:02:13;12.30;;;2.50;;
66327;SDS011;53133;52.862;6.602;2022-08-26T11:07:28;10.25;;;2.90;;
66327;SDS011;53133;52.862;6.602;2022-08-26T11:17:57;7.13;;;2.58;;
66327;SDS011;53133;52.862;6.602;2022-08-26T11:20:38;7.78;;;2.80;;
66327;SDS011;53133;52.862;6.602;2022-08-26T11:28:34;8.32;;;2.80;;
66327;SDS011;53133;52.862;6.602;2022-08-26T11:31:01;8.40;;;2.42;;
66327;SDS011;53133;52.862;6.602;2022-08-26T11:33:49;10.35;;;2.58;;
66327;SDS011;53133;52.862;6.602;2022-08-26T11:39:20;9.20;;;2.85;;
66327;SDS011;53133;52.862;6.602;2022-08-26T11:42:13;6.95;;;2.10;;
66327;SDS011;53133;52.862;6.602;2022-08-26T11:44:49;8.82;;;2.30;;
66327;SDS011;53133;52.862;6.602;2022-08-26T11:47:16;8.23;;;2.40;;
66327;SDS011;53133;52.862;6.602;2022-08-26T11:50:04;6.25;;;2.17;;
66327;SDS011;53133;52.862;6.602;2022-08-26T11:52:35;9.30;;;2.70;;
66327;SDS011;53133;52.862;6.602;2022-08-26T11:55:05;10.38;;;2.38;;
66327;SDS011;53133;52.862;6.602;2022-08-26T11:57:33;9.48;;;2.08;;
66327;SDS011;53133;52.862;6.602;2022-08-26T12:00:05;9.10;;;2.50;;
66327;SDS011;53133;52.862;6.602;2022-08-26T12:02:34;8.88;;;2.08;;
66327;SDS011;53133;52.862;6.602;2022-08-26T12:05:00;10.50;;;2.40;;
66327;SDS011;53133;52.862;6.602;2022-08-26T12:07:27;9.85;;;2.53;;
66327;SDS011;53133;52.862;6.602;2022-08-26T12:10:03;5.85;;;1.95;;
66327;SDS011;53133;52.862;6.602;2022-08-26T12:12:32;9.15;;;1.80;;
66327;SDS011;53133;52.862;6.602;2022-08-26T12:17:36;8.85;;;2.40;;
66327;SDS011;53133;52.862;6.602;2022-08-26T12:20:03;9.95;;;2.78;;
66327;SDS011;53133;52.862;6.602;2022-08-26T12:22:33;8.27;;;2.47;;
66327;SDS011;53133;52.862;6.602;2022-08-26T12:25:01;10.07;;;3.00;;
66327;SDS011;53133;52.862;6.602;2022-08-26T12:27:42;8.18;;;2.50;;
66327;SDS011;53133;52.862;6.602;2022-08-26T12:30:13;6.20;;;2.40;;
66327;SDS011;53133;52.862;6.602;2022-08-26T12:32:42;10.85;;;2.60;;
66327;SDS011;53133;52.862;6.602;2022-08-26T12:35:11;12.90;;;2.50;;
66327;SDS011;53133;52.862;6.602;2022-08-26T12:37:49;8.70;;;2.70;;
66327;SDS011;53133;52.862;6.602;2022-08-26T12:40:23;8.75;;;3.10;;
66327;SDS011;53133;52.862;6.602;2022-08-26T12:42:55;12.45;;;3.63;;
66327;SDS011;53133;52.862;6.602;2022-08-26T12:45:25;12.05;;;3.70;;
66327;SDS011;53133;52.862;6.602;2022-08-26T12:47:56;6.65;;;3.03;;
66327;SDS011;53133;52.862;6.602;2022-08-26T12:50:29;8.10;;;3.50;;
66327;SDS011;53133;52.862;6.602;2022-08-26T12:52:58;7.53;;;3.35;;
66327;SDS011;53133;52.862;6.602;2022-08-26T12:55:35;9.05;;;3.30;;
66327;SDS011;53133;52.862;6.602;2022-08-26T13:00:48;9.02;;;2.70;;
66327;SDS011;53133;52.862;6.602;2022-08-26T13:06:12;4.55;;;2.15;;
66327;SDS011;53133;52.862;6.602;2022-08-26T13:14:20;5.85;;;2.20;;
66327;SDS011;53133;52.862;6.602;2022-08-26T13:16:47;7.05;;;2.20;;
66327;SDS011;53133;52.862;6.602;2022-08-26T13:19:15;5.13;;;2.05;;
66327;SDS011;53133;52.862;6.602;2022-08-26T13:21:45;6.32;;;2.15;;
66327;SDS011;53133;52.862;6.602;2022-08-26T13:24:13;5.88;;;2.08;;
66327;SDS011;53133;52.862;6.602;2022-08-26T13:26:58;6.32;;;1.92;;
66327;SDS011;53133;52.862;6.602;2022-08-26T13:29:25;5.82;;;2.28;;
66327;SDS011;53133;52.862;6.602;2022-08-26T13:31:51;4.32;;;1.92;;
66327;SDS011;53133;52.862;6.602;2022-08-26T13:34:18;9.57;;;2.30;;
66327;SDS011;53133;52.862;6.602;2022-08-26T13:36:46;5.95;;;2.08;;
66327;SDS011;53133;52.862;6.602;2022-08-26T13:39:12;6.95;;;2.35;;
66327;SDS011;53133;52.862;6.602;2022-08-26T13:41:38;5.43;;;2.45;;
66327;SDS011;53133;52.862;6.602;2022-08-26T13:44:04;7.15;;;2.30;;
66327;SDS011;53133;52.862;6.602;2022-08-26T13:46:30;9.27;;;2.33;;
66327;SDS011;53133;52.862;6.602;2022-08-26T13:48:56;5.55;;;2.17;;
66327;SDS011;53133;52.862;6.602;2022-08-26T13:51:22;8.07;;;2.33;;
66327;SDS011;53133;52.862;6.602;2022-08-26T13:53:49;9.55;;;2.50;;
66327;SDS011;53133;52.862;6.602;2022-08-26T13:56:16;8.43;;;2.60;;
66327;SDS011;53133;52.862;6.602;2022-08-26T13:58:42;8.50;;;2.30;;
66327;SDS011;53133;52.862;6.602;2022-08-26T14:01:08;9.95;;;2.55;;
66327;SDS011;53133;52.862;6.602;2022-08-26T14:03:34;11.05;;;2.45;;
66327;SDS011;53133;52.862;6.602;2022-08-26T14:06:00;5.70;;;2.17;;
66327;SDS011;53133;52.862;6.602;2022-08-26T14:08:26;6.15;;;2.17;;
66327;SDS011;53133;52.862;6.602;2022-08-26T14:10:51;7.40;;;2.28;;
66327;SDS011;53133;52.862;6.602;2022-08-26T14:13:17;7.00;;;2.10;;
66327;SDS011;53133;52.862;6.602;2022-08-26T14:15:43;6.72;;;2.58;;
66327;SDS011;53133;52.862;6.602;2022-08-26T14:18:09;5.30;;;2.20;;
66327;SDS011;53133;52.862;6.602;2022-08-26T14:20:39;7.45;;;2.30;;
66327;SDS011;53133;52.862;6.602;2022-08-26T14:23:13;6.35;;;2.50;;
66327;SDS011;53133;52.862;6.602;2022-08-26T14:25:40;7.45;;;2.45;;
66327;SDS011;53133;52.862;6.602;2022-08-26T14:28:06;9.35;;;2.50;;
66327;SDS011;53133;52.862;6.602;2022-08-26T14:30:32;6.47;;;2.53;;
66327;SDS011;53133;52.862;6.602;2022-08-26T14:32:58;7.80;;;2.63;;
66327;SDS011;53133;52.862;6.602;2022-08-26T14:35:24;8.43;;;2.85;;
66327;SDS011;53133;52.862;6.602;2022-08-26T14:37:53;6.38;;;2.75;;
66327;SDS011;53133;52.862;6.602;2022-08-26T14:40:20;8.48;;;2.67;;
66327;SDS011;53133;52.862;6.602;2022-08-26T14:42:47;6.25;;;2.50;;
66327;SDS011;53133;52.862;6.602;2022-08-26T14:45:17;9.70;;;2.80;;
66327;SDS011;53133;52.862;6.602;2022-08-26T14:47:45;5.55;;;2.38;;
66327;SDS011;53133;52.862;6.602;2022-08-26T14:50:14;5.93;;;2.30;;
66327;SDS011;53133;52.862;6.602;2022-08-26T14:52:41;4.82;;;2.38;;
66327;SDS011;53133;52.862;6.602;2022-08-26T14:55:26;7.45;;;2.05;;
66327;SDS011;53133;52.862;6.602;2022-08-26T14:57:53;7.70;;;2.20;;
66327;SDS011;53133;52.862;6.602;2022-08-26T15:00:18;4.50;;;2.10;;
66327;SDS011;53133;52.862;6.602;2022-08-26T15:02:44;7.13;;;2.38;;
66327;SDS011;53133;52.862;6.602;2022-08-26T15:05:10;5.75;;;1.98;;
66327;SDS011;53133;52.862;6.602;2022-08-26T15:07:37;4.25;;;1.80;;
66327;SDS011;53133;52.862;6.602;2022-08-26T15:10:07;8.73;;;2.45;;
66327;SDS011;53133;52.862;6.602;2022-08-26T15:12:35;7.45;;;1.92;;
66327;SDS011;53133;52.862;6.602;2022-08-26T15:15:03;7.43;;;2.50;;
66327;SDS011;53133;52.862;6.602;2022-08-26T15:17:30;8.15;;;2.20;;
66327;SDS011;53133;52.862;6.602;2022-08-26T15:19:55;7.05;;;1.90;;
66327;SDS011;53133;52.862;6.602;2022-08-26T15:22:22;5.95;;;2.20;;
66327;SDS011;53133;52.862;6.602;2022-08-26T15:24:48;7.40;;;2.10;;
66327;SDS011;53133;52.862;6.602;2022-08-26T15:27:14;12.20;;;2.78;;
66327;SDS011;53133;52.862;6.602;2022-08-26T15:29:40;8.45;;;2.03;;
66327;SDS011;53133;52.862;6.602;2022-08-26T15:32:05;10.88;;;1.92;;
66327;SDS011;53133;52.862;6.602;2022-08-26T15:34:31;6.90;;;2.28;;
66327;SDS011;53133;52.862;6.602;2022-08-26T15:36:57;5.20;;;1.92;;
66327;SDS011;53133;52.862;6.602;2022-08-26T15:39:22;6.88;;;2.30;;
66327;SDS011;53133;52.862;6.602;2022-08-26T15:41:48;8.52;;;2.05;;
66327;SDS011;53133;52.862;6.602;2022-08-26T15:44:14;6.07;;;1.83;;
66327;SDS011;53133;52.862;6.602;2022-08-26T15:46:42;8.23;;;1.80;;
66327;SDS011;53133;52.862;6.602;2022-08-26T15:49:08;6.60;;;2.00;;